createdAt,value
2023-02-11T00:01:47.593Z,5.61
2023-02-11T00:04:14.108Z,5.55
2023-02-11T00:06:40.617Z,5.58
2023-02-11T00:09:07.373Z,5.62
2023-02-11T00:11:34.533Z,5.75
2023-02-11T00:14:04.247Z,5.67
2023-02-11T00:16:31.657Z,5.53
2023-02-11T00:19:03.438Z,5.50
2023-02-11T00:21:30.105Z,5.56
2023-02-11T00:23:57.011Z,5.71
2023-02-11T00:26:26.877Z,5.73
2023-02-11T00:28:53.877Z,5.56
2023-02-11T00:31:22.988Z,5.47
2023-02-11T00:33:50.081Z,5.33
2023-02-11T00:36:20.763Z,5.35
2023-02-11T00:38:49.524Z,5.41
2023-02-11T00:41:17.320Z,5.52
2023-02-11T00:43:44.673Z,5.39
2023-02-11T00:46:11.877Z,5.35
2023-02-11T00:48:38.466Z,5.35
2023-02-11T00:51:05.277Z,5.54
2023-02-11T00:53:32.976Z,5.40
2023-02-11T00:55:59.525Z,5.43
2023-02-11T00:58:26.104Z,5.31
2023-02-11T01:00:54.301Z,5.44
2023-02-11T01:03:20.848Z,5.28
2023-02-11T01:05:47.545Z,5.38
2023-02-11T01:08:14.292Z,5.46
2023-02-11T01:10:40.816Z,5.27
2023-02-11T01:13:07.331Z,5.37
2023-02-11T01:15:33.881Z,5.35
2023-02-11T01:18:00.370Z,5.41
2023-02-11T01:20:30.603Z,5.40
2023-02-11T01:22:57.063Z,5.26
2023-02-11T01:25:23.582Z,5.33
2023-02-11T01:27:50.047Z,5.37
2023-02-11T01:30:16.557Z,5.33
2023-02-11T01:32:43.056Z,5.28
2023-02-11T01:35:09.702Z,5.01
2023-02-11T01:37:36.822Z,4.82
2023-02-11T01:40:06.843Z,4.56
2023-02-11T01:42:33.785Z,4.33
2023-02-11T01:45:21.811Z,4.41
2023-02-11T01:47:48.300Z,4.62
2023-02-11T01:50:14.957Z,4.70
2023-02-11T01:52:42.194Z,4.74
2023-02-11T01:55:12.562Z,4.86
2023-02-11T01:57:45.538Z,4.82
2023-02-11T02:00:35.066Z,4.98
2023-02-11T02:03:19.643Z,5.07
2023-02-11T02:06:06.203Z,5.18
2023-02-11T02:08:53.137Z,5.09
2023-02-11T02:11:19.744Z,4.95
2023-02-11T02:13:47.332Z,4.80
2023-02-11T02:16:17.774Z,4.70
2023-02-11T02:19:16.478Z,4.52
2023-02-11T02:22:04.329Z,4.01
2023-02-11T02:24:50.487Z,4.47
2023-02-11T02:27:55.156Z,4.57
2023-02-11T02:30:36.599Z,4.57
2023-02-11T02:33:24.217Z,4.72
2023-02-11T02:35:58.339Z,4.92
2023-02-11T02:38:33.842Z,5.02
2023-02-11T02:41:07.206Z,5.20
2023-02-11T02:43:36.925Z,5.37
2023-02-11T02:46:31.040Z,5.38
2023-02-11T02:48:58.358Z,5.31
2023-02-11T02:51:42.465Z,5.15
2023-02-11T02:54:11.801Z,5.17
2023-02-11T02:56:50.648Z,5.21
2023-02-11T02:59:41.642Z,5.34
2023-02-11T03:02:15.050Z,5.38
2023-02-11T03:05:01.672Z,5.44
2023-02-11T03:07:48.469Z,5.39
2023-02-11T03:10:35.130Z,5.31
2023-02-11T03:13:04.486Z,5.25
2023-02-11T03:15:37.943Z,5.28
2023-02-11T03:18:09.465Z,5.33
2023-02-11T03:20:38.869Z,5.39
2023-02-11T03:23:18.829Z,5.35
2023-02-11T03:25:59.668Z,5.23
2023-02-11T03:28:34.328Z,5.28
2023-02-11T03:31:19.105Z,5.21
2023-02-11T03:34:03.592Z,5.29
2023-02-11T03:36:44.245Z,5.23
2023-02-11T03:39:16.163Z,5.17
2023-02-11T03:41:47.289Z,5.21
2023-02-11T03:44:16.793Z,5.30
2023-02-11T03:46:50.371Z,5.23
2023-02-11T03:49:21.740Z,5.04
2023-02-11T03:51:52.885Z,5.02
2023-02-11T03:54:27.208Z,5.16
2023-02-11T03:56:58.742Z,5.19
2023-02-11T03:59:25.937Z,5.01
2023-02-11T04:01:52.948Z,5.11
2023-02-11T04:04:19.549Z,5.02
2023-02-11T04:06:46.054Z,5.00
2023-02-11T04:09:14.090Z,4.95
2023-02-11T04:11:40.613Z,4.84
2023-02-11T04:14:27.087Z,4.80
2023-02-11T04:16:53.565Z,4.95
2023-02-11T04:19:20.096Z,4.95
2023-02-11T04:21:47.204Z,4.81
2023-02-11T04:24:13.726Z,4.95
2023-02-11T04:26:40.200Z,4.83
2023-02-11T04:29:06.697Z,4.77
2023-02-11T04:31:33.197Z,4.88
2023-02-11T04:33:59.789Z,4.95
2023-02-11T04:36:26.320Z,4.91
2023-02-11T04:38:52.788Z,4.80
2023-02-11T04:41:19.279Z,4.80
2023-02-11T04:43:45.754Z,4.82
2023-02-11T04:46:12.293Z,4.72
2023-02-11T04:48:38.846Z,4.72
2023-02-11T04:51:05.447Z,4.78
2023-02-11T04:53:32.065Z,4.82
2023-02-11T04:55:58.553Z,4.81
2023-02-11T04:58:25.046Z,4.80
2023-02-11T05:00:51.528Z,4.74
2023-02-11T05:03:18.285Z,4.73
2023-02-11T05:05:44.815Z,4.74
2023-02-11T05:08:11.391Z,4.77
2023-02-11T05:10:37.985Z,4.67
2023-02-11T05:13:05.104Z,4.47
2023-02-11T05:15:31.588Z,4.60
2023-02-11T05:17:58.073Z,4.49
2023-02-11T05:20:24.597Z,4.41
2023-02-11T05:22:51.072Z,4.47
2023-02-11T05:25:17.673Z,4.47
2023-02-11T05:27:44.141Z,4.45
2023-02-11T05:30:11.268Z,4.42
2023-02-11T05:32:37.919Z,4.53
2023-02-11T05:35:04.879Z,4.61
2023-02-11T05:37:31.368Z,4.30
2023-02-11T05:39:57.907Z,4.45
2023-02-11T05:42:24.451Z,4.55
2023-02-11T05:44:50.938Z,4.54
2023-02-11T05:47:17.406Z,4.37
2023-02-11T05:49:43.885Z,4.35
2023-02-11T05:52:10.392Z,4.39
2023-02-11T05:54:36.892Z,4.48
2023-02-11T05:57:03.465Z,4.49
2023-02-11T05:59:29.994Z,4.43
2023-02-11T06:01:56.480Z,4.28
2023-02-11T06:04:22.976Z,4.39
2023-02-11T06:06:49.461Z,4.41
2023-02-11T06:09:16.137Z,4.39
2023-02-11T06:11:42.594Z,4.47
2023-02-11T06:14:09.041Z,4.52
2023-02-11T06:16:35.546Z,4.40
2023-02-11T06:19:02.226Z,4.50
2023-02-11T06:21:42.513Z,4.65
2023-02-11T06:24:10.609Z,4.59
2023-02-11T06:26:37.124Z,4.66
2023-02-11T06:29:03.603Z,4.69
2023-02-11T06:31:30.384Z,4.52
2023-02-11T06:33:56.959Z,4.48
2023-02-11T06:36:23.442Z,4.48
2023-02-11T06:38:50.813Z,4.48
2023-02-11T06:41:19.031Z,4.42
2023-02-11T06:43:46.253Z,4.52
2023-02-11T06:46:13.344Z,4.53
2023-02-11T06:48:39.878Z,4.41
2023-02-11T06:51:11.762Z,4.45
2023-02-11T06:53:40.869Z,4.37
2023-02-11T06:56:09.979Z,3.86
2023-02-11T06:58:37.124Z,3.33
2023-02-11T07:01:09.377Z,3.20
2023-02-11T07:03:38.153Z,3.04
2023-02-11T07:06:06.347Z,3.36
2023-02-11T07:08:34.353Z,3.58
2023-02-11T07:11:01.363Z,3.70
2023-02-11T07:13:28.011Z,3.88
2023-02-11T07:15:54.542Z,4.02
2023-02-11T07:18:21.174Z,4.14
2023-02-11T07:20:47.701Z,4.32
2023-02-11T07:23:14.172Z,4.40
2023-02-11T07:25:40.642Z,4.53
2023-02-11T07:28:07.273Z,4.57
2023-02-11T07:30:33.779Z,4.57
2023-02-11T07:33:00.272Z,4.60
2023-02-11T07:35:26.753Z,4.55
2023-02-11T07:37:53.247Z,4.68
2023-02-11T07:40:19.843Z,4.72
2023-02-11T07:42:46.347Z,4.73
2023-02-11T07:45:14.803Z,4.78
2023-02-11T07:47:41.278Z,4.85
2023-02-11T07:50:07.915Z,4.83
2023-02-11T07:52:34.454Z,4.88
2023-02-11T07:55:02.656Z,4.96
2023-02-11T07:57:31.040Z,4.95
2023-02-11T07:59:57.513Z,5.01
2023-02-11T08:02:24.127Z,5.14
2023-02-11T08:04:50.691Z,5.21
2023-02-11T08:07:18.177Z,5.28
2023-02-11T08:09:44.685Z,5.33
2023-02-11T08:12:11.340Z,5.40
2023-02-11T08:14:37.949Z,5.49
2023-02-11T08:17:04.750Z,5.56
2023-02-11T08:19:33.499Z,5.73
2023-02-11T08:22:01.601Z,5.79
2023-02-11T08:24:28.095Z,5.85
2023-02-11T08:26:54.577Z,5.96
2023-02-11T08:29:21.097Z,6.16
2023-02-11T08:31:48.261Z,6.25
2023-02-11T08:34:15.665Z,6.16
2023-02-11T08:36:42.904Z,6.19
2023-02-11T08:39:19.676Z,6.35
2023-02-11T08:41:50.025Z,6.38
2023-02-11T08:44:18.387Z,6.50
2023-02-11T08:46:44.915Z,6.51
2023-02-11T08:49:11.539Z,6.51
2023-02-11T08:51:38.153Z,6.37
2023-02-11T08:54:04.693Z,6.45
2023-02-11T08:56:31.198Z,6.41
2023-02-11T08:58:57.681Z,6.49
2023-02-11T09:01:27.926Z,6.59
2023-02-11T09:03:55.304Z,6.62
2023-02-11T09:06:22.973Z,6.73
2023-02-11T09:08:51.877Z,6.73
2023-02-11T09:11:20.982Z,6.95
2023-02-11T09:13:47.703Z,7.02
2023-02-11T09:16:24.511Z,7.15
2023-02-11T09:18:51.165Z,7.27
2023-02-11T09:21:19.103Z,7.30
2023-02-11T09:23:46.797Z,7.43
2023-02-11T09:26:17.379Z,7.58
2023-02-11T09:28:44.133Z,7.63
2023-02-11T09:31:13.420Z,7.70
2023-02-11T09:33:42.055Z,7.77
2023-02-11T09:36:08.952Z,7.64
2023-02-11T09:38:35.476Z,7.81
2023-02-11T09:41:02.521Z,7.85
2023-02-11T09:43:38.722Z,7.60
2023-02-11T09:46:08.005Z,7.85
2023-02-11T09:48:41.417Z,7.88
2023-02-11T09:51:20.484Z,8.05
2023-02-11T09:54:00.096Z,8.06
2023-02-11T09:56:28.197Z,8.04
2023-02-11T09:58:54.894Z,8.06
2023-02-11T10:01:50.053Z,8.03
2023-02-11T10:04:51.322Z,7.95
2023-02-11T10:07:31.431Z,7.84
2023-02-11T10:10:33.368Z,7.57
2023-02-11T10:13:22.999Z,7.91
2023-02-11T10:16:14.745Z,7.89
2023-02-11T10:19:19.173Z,8.01
2023-02-11T10:21:59.597Z,8.21
2023-02-11T10:24:26.693Z,8.21
2023-02-11T10:26:53.144Z,8.18
2023-02-11T10:29:55.097Z,8.18
2023-02-11T10:32:49.296Z,8.19
2023-02-11T10:35:18.736Z,8.09
2023-02-11T10:37:45.790Z,8.00
2023-02-11T10:40:15.331Z,7.92
2023-02-11T10:42:49.380Z,7.48
2023-02-11T10:45:22.582Z,7.60
2023-02-11T10:47:49.095Z,7.64
2023-02-11T10:50:26.933Z,7.64
2023-02-11T10:53:12.487Z,7.68
2023-02-11T10:55:39.281Z,7.64
2023-02-11T10:58:05.813Z,7.55
2023-02-11T11:00:36.689Z,7.25
2023-02-11T11:03:25.320Z,7.57
2023-02-11T11:06:01.836Z,7.66
2023-02-11T11:08:47.487Z,7.74
2023-02-11T11:11:21.054Z,7.92
2023-02-11T11:13:53.182Z,7.40
2023-02-11T11:16:28.652Z,7.55
2023-02-11T11:19:07.435Z,7.63
2023-02-11T11:21:41.002Z,7.50
2023-02-11T11:24:19.984Z,7.78
2023-02-11T11:26:51.161Z,7.86
2023-02-11T11:29:40.237Z,7.68
2023-02-11T11:32:20.528Z,7.78
2023-02-11T11:34:56.492Z,8.05
2023-02-11T11:37:27.629Z,7.74
2023-02-11T11:40:14.844Z,7.78
2023-02-11T11:42:41.628Z,8.01
2023-02-11T11:45:17.127Z,8.07
2023-02-11T11:47:54.001Z,8.22
2023-02-11T11:50:30.499Z,8.06
2023-02-11T11:53:09.445Z,8.10
2023-02-11T11:55:45.270Z,8.45
2023-02-11T11:58:22.304Z,8.21
2023-02-11T12:01:14.648Z,8.48
2023-02-11T12:03:50.164Z,8.51
2023-02-11T12:06:37.081Z,8.76
2023-02-11T12:09:39.354Z,8.93
2023-02-11T12:12:21.169Z,9.07
2023-02-11T12:15:12.220Z,9.01
2023-02-11T12:17:52.141Z,8.90
2023-02-11T12:20:53.385Z,8.66
2023-02-11T12:23:31.757Z,8.58
2023-02-11T12:26:19.379Z,8.85
2023-02-11T12:29:23.174Z,8.85
2023-02-11T12:32:04.920Z,8.50
2023-02-11T12:34:57.702Z,8.77
2023-02-11T12:37:47.755Z,8.78
2023-02-11T12:40:26.414Z,8.95
2023-02-11T12:43:11.448Z,9.08
2023-02-11T12:46:13.747Z,9.04
2023-02-11T12:49:05.400Z,9.24
2023-02-11T12:51:50.721Z,9.54
2023-02-11T12:54:44.532Z,9.46
2023-02-11T12:57:28.221Z,9.56
2023-02-11T13:00:07.506Z,9.59
2023-02-11T13:02:40.049Z,9.46
2023-02-11T13:05:38.872Z,9.63
2023-02-11T13:08:14.347Z,9.54
2023-02-11T13:10:47.140Z,9.83
2023-02-11T13:13:29.792Z,9.81
2023-02-11T13:16:17.005Z,9.56
2023-02-11T13:18:56.017Z,9.65
2023-02-11T13:21:29.834Z,9.98
2023-02-11T13:24:19.151Z,10.31
2023-02-11T13:27:13.560Z,10.03
2023-02-11T13:30:17.665Z,10.26
2023-02-11T13:32:55.910Z,10.64
2023-02-11T13:35:43.790Z,10.64
2023-02-11T13:38:29.307Z,10.88
2023-02-11T13:41:16.509Z,10.94
2023-02-11T13:43:44.418Z,10.93
2023-02-11T13:46:13.681Z,11.29
2023-02-11T13:48:49.742Z,11.28
2023-02-11T13:51:34.388Z,11.40
2023-02-11T13:54:02.622Z,11.51
2023-02-11T13:56:34.351Z,11.57
2023-02-11T13:59:04.712Z,11.80
2023-02-11T14:01:49.272Z,11.63
2023-02-11T14:04:25.603Z,12.03
2023-02-11T14:07:21.089Z,12.16
2023-02-11T14:09:47.581Z,12.24
2023-02-11T14:12:31.091Z,12.48
2023-02-11T14:15:02.979Z,12.62
2023-02-11T14:17:35.313Z,12.95
2023-02-11T14:20:23.637Z,13.24
2023-02-11T14:22:52.936Z,13.51
2023-02-11T14:25:25.176Z,13.75
2023-02-11T14:28:00.973Z,14.27
2023-02-11T14:30:45.735Z,14.80
2023-02-11T14:33:31.141Z,15.06
2023-02-11T14:36:24.046Z,15.24
2023-02-11T14:39:21.404Z,15.39
2023-02-11T14:41:49.865Z,15.67
2023-02-11T14:44:30.093Z,15.87
2023-02-11T14:47:00.013Z,16.04
2023-02-11T14:49:26.461Z,16.15
2023-02-11T14:52:03.759Z,16.34
2023-02-11T14:54:31.023Z,16.27
2023-02-11T14:57:20.204Z,16.41
2023-02-11T14:59:59.704Z,16.59
2023-02-11T15:02:32.996Z,16.46
2023-02-11T15:05:21.643Z,16.67
2023-02-11T15:07:52.456Z,16.72
2023-02-11T15:10:30.599Z,16.84
2023-02-11T15:12:59.798Z,16.81
2023-02-11T15:15:28.221Z,16.70
2023-02-11T15:18:00.978Z,16.80
2023-02-11T15:20:32.098Z,16.60
2023-02-11T15:23:08.640Z,16.55
2023-02-11T15:25:42.726Z,16.55
2023-02-11T15:28:22.690Z,16.67
2023-02-11T15:31:00.156Z,16.54
2023-02-11T15:33:26.872Z,16.55
2023-02-11T15:35:53.481Z,16.49
2023-02-11T15:38:20.546Z,16.63
2023-02-11T15:41:02.233Z,16.72
2023-02-11T15:43:49.945Z,16.77
2023-02-11T15:46:23.131Z,16.65
2023-02-11T15:48:54.475Z,16.66
2023-02-11T15:51:27.381Z,16.75
2023-02-11T15:53:57.448Z,16.79
2023-02-11T15:56:35.080Z,16.74
2023-02-11T15:59:17.091Z,16.67
2023-02-11T16:01:45.113Z,16.53
2023-02-11T16:04:27.068Z,16.31
2023-02-11T16:06:55.294Z,16.46
2023-02-11T16:09:36.601Z,16.32
2023-02-11T16:12:23.032Z,16.11
2023-02-11T16:14:49.613Z,15.93
2023-02-11T16:17:27.817Z,15.83
2023-02-11T16:19:55.508Z,15.64
2023-02-11T16:22:29.282Z,15.44
2023-02-11T16:24:59.735Z,15.26
2023-02-11T16:27:39.484Z,14.94
2023-02-11T16:30:23.668Z,14.49
2023-02-11T16:32:52.248Z,14.14
2023-02-11T16:35:18.742Z,13.87
2023-02-11T16:37:45.218Z,13.46
2023-02-11T16:40:12.999Z,13.32
2023-02-11T16:42:39.615Z,13.11
2023-02-11T16:45:06.741Z,12.96
2023-02-11T16:47:36.153Z,12.69
2023-02-11T16:50:03.026Z,12.50
2023-02-11T16:52:29.943Z,12.38
2023-02-11T16:54:56.512Z,12.21
2023-02-11T16:57:26.479Z,12.00
2023-02-11T16:59:54.653Z,11.92
2023-02-11T17:02:26.723Z,11.83
2023-02-11T17:04:54.811Z,11.68
2023-02-11T17:07:21.774Z,11.59
2023-02-11T17:09:48.254Z,11.53
2023-02-11T17:12:14.737Z,11.39
2023-02-11T17:14:41.229Z,11.23
2023-02-11T17:17:08.955Z,11.14
2023-02-11T17:19:35.444Z,11.04
2023-02-11T17:22:02.669Z,10.87
2023-02-11T17:24:29.158Z,10.78
2023-02-11T17:26:55.711Z,10.70
2023-02-11T17:29:25.840Z,10.61
2023-02-11T17:31:52.930Z,10.56
2023-02-11T17:34:21.144Z,10.46
2023-02-11T17:36:48.110Z,10.33
2023-02-11T17:39:16.877Z,10.27
2023-02-11T17:41:43.355Z,10.19
2023-02-11T17:44:11.070Z,10.05
2023-02-11T17:46:37.796Z,10.12
2023-02-11T17:49:04.954Z,10.09
2023-02-11T17:51:34.787Z,10.04
2023-02-11T17:54:04.465Z,9.80
2023-02-11T17:56:35.521Z,9.77
2023-02-11T17:59:02.997Z,9.65
2023-02-11T18:01:31.388Z,9.54
2023-02-11T18:03:57.964Z,9.54
2023-02-11T18:06:26.124Z,9.49
2023-02-11T18:08:55.615Z,9.45
2023-02-11T18:11:24.056Z,9.46
2023-02-11T18:13:51.354Z,9.42
2023-02-11T18:16:17.931Z,9.43
2023-02-11T18:18:44.888Z,9.38
2023-02-11T18:21:14.970Z,9.33
2023-02-11T18:23:41.689Z,9.24
2023-02-11T18:26:09.685Z,9.12
2023-02-11T18:28:36.666Z,9.18
2023-02-11T18:31:03.733Z,9.13
2023-02-11T18:33:30.858Z,9.08
2023-02-11T18:35:57.520Z,9.12
2023-02-11T18:38:24.686Z,8.93
2023-02-11T18:40:51.520Z,8.88
2023-02-11T18:43:20.040Z,8.91
2023-02-11T18:45:48.534Z,8.72
2023-02-11T18:48:16.283Z,8.84
2023-02-11T18:50:44.968Z,8.79
2023-02-11T18:53:13.485Z,8.91
2023-02-11T18:55:41.842Z,8.89
2023-02-11T18:58:08.594Z,8.82
2023-02-11T19:00:36.501Z,8.80
2023-02-11T19:03:03.171Z,8.85
2023-02-11T19:05:30.186Z,8.80
2023-02-11T19:07:56.674Z,8.62
2023-02-11T19:10:23.774Z,8.60
2023-02-11T19:12:53.683Z,8.63
2023-02-11T19:15:20.150Z,8.66
2023-02-11T19:17:46.634Z,8.47
2023-02-11T19:20:13.166Z,8.47
2023-02-11T19:22:39.678Z,8.48
2023-02-11T19:25:06.716Z,8.53
2023-02-11T19:27:33.918Z,8.37
2023-02-11T19:30:00.491Z,8.41
2023-02-11T19:32:29.812Z,8.24
2023-02-11T19:34:56.524Z,8.19
2023-02-11T19:37:23.249Z,8.23
2023-02-11T19:39:49.817Z,8.33
2023-02-11T19:42:18.671Z,8.33
2023-02-11T19:44:45.153Z,8.29
2023-02-11T19:47:11.759Z,8.13
2023-02-11T19:49:38.401Z,8.20
2023-02-11T19:52:04.901Z,8.16
2023-02-11T19:54:31.375Z,8.06
2023-02-11T19:56:58.182Z,8.15
2023-02-11T19:59:24.873Z,8.01
2023-02-11T20:01:51.494Z,8.00
2023-02-11T20:04:18.053Z,8.01
2023-02-11T20:06:44.790Z,7.93
2023-02-11T20:09:14.362Z,7.97
2023-02-11T20:11:41.764Z,7.90
2023-02-11T20:14:11.731Z,7.86
2023-02-11T20:16:48.070Z,7.85
2023-02-11T20:19:18.161Z,7.89
2023-02-11T20:21:47.760Z,7.79
2023-02-11T20:24:16.112Z,7.79
2023-02-11T20:26:42.690Z,7.61
2023-02-11T20:29:09.551Z,7.55
2023-02-11T20:31:36.482Z,7.55
2023-02-11T20:34:03.169Z,7.67
2023-02-11T20:36:33.037Z,7.62
2023-02-11T20:39:00.554Z,7.66
2023-02-11T20:41:30.401Z,7.65
2023-02-11T20:44:02.044Z,7.61
2023-02-11T20:46:31.116Z,7.63
2023-02-11T20:48:57.654Z,7.63
2023-02-11T20:51:28.092Z,7.56
2023-02-11T20:53:54.845Z,7.55
2023-02-11T20:56:26.337Z,7.63
2023-02-11T20:58:52.908Z,7.58
2023-02-11T21:01:29.141Z,7.51
2023-02-11T21:04:07.879Z,7.53
2023-02-11T21:06:37.807Z,7.36
2023-02-11T21:09:07.047Z,7.37
2023-02-11T21:11:34.053Z,7.46
2023-02-11T21:14:00.832Z,7.43
2023-02-11T21:16:27.718Z,7.51
2023-02-11T21:18:54.889Z,7.41
2023-02-11T21:21:21.522Z,7.40
2023-02-11T21:23:48.020Z,7.39
2023-02-11T21:26:15.525Z,7.26
2023-02-11T21:28:42.146Z,7.37
2023-02-11T21:31:09.047Z,7.39
2023-02-11T21:33:35.932Z,7.48
2023-02-11T21:36:04.524Z,7.35
2023-02-11T21:38:31.402Z,7.45
2023-02-11T21:41:03.558Z,7.41
2023-02-11T21:43:30.101Z,7.48
2023-02-11T21:45:57.356Z,7.47
2023-02-11T21:48:24.523Z,7.41
2023-02-11T21:50:51.302Z,7.48
2023-02-11T21:53:17.788Z,7.52
2023-02-11T21:55:44.265Z,7.53
2023-02-11T21:58:12.874Z,7.42
2023-02-11T22:00:39.935Z,7.42
2023-02-11T22:03:06.428Z,7.32
2023-02-11T22:05:32.891Z,6.85
2023-02-11T22:07:59.377Z,6.59
2023-02-11T22:10:26.039Z,6.75
2023-02-11T22:12:52.556Z,6.59
2023-02-11T22:15:19.175Z,6.62
2023-02-11T22:17:45.777Z,6.77
2023-02-11T22:20:12.300Z,6.84
2023-02-11T22:22:38.778Z,6.96
2023-02-11T22:25:05.791Z,6.91
2023-02-11T22:27:34.565Z,6.95
2023-02-11T22:30:01.051Z,6.91
2023-02-11T22:32:27.546Z,7.03
2023-02-11T22:34:54.028Z,7.09
2023-02-11T22:37:20.585Z,7.08
2023-02-11T22:39:47.146Z,6.81
2023-02-11T22:42:13.620Z,6.78
2023-02-11T22:44:40.117Z,6.69
2023-02-11T22:47:06.645Z,6.91
2023-02-11T22:49:33.145Z,6.97
2023-02-11T22:51:59.679Z,7.06
2023-02-11T22:54:26.415Z,7.12
2023-02-11T22:56:53.192Z,7.10
2023-02-11T22:59:21.103Z,7.05
2023-02-11T23:01:48.037Z,6.93
2023-02-11T23:04:16.309Z,6.92
2023-02-11T23:06:43.267Z,7.02
2023-02-11T23:09:11.137Z,7.09
2023-02-11T23:11:37.892Z,7.06
2023-02-11T23:14:04.466Z,7.05
2023-02-11T23:16:33.587Z,7.02
2023-02-11T23:19:02.324Z,7.05
2023-02-11T23:21:31.765Z,7.07
2023-02-11T23:24:04.622Z,7.03
2023-02-11T23:26:31.791Z,7.00
2023-02-11T23:28:59.524Z,7.06
2023-02-11T23:31:30.332Z,7.01
2023-02-11T23:33:56.905Z,6.99
2023-02-11T23:36:23.731Z,7.04
2023-02-11T23:38:50.876Z,7.09
2023-02-11T23:41:17.790Z,7.03
2023-02-11T23:43:44.359Z,7.04
2023-02-11T23:46:11.454Z,6.95
2023-02-11T23:48:38.047Z,7.01
2023-02-11T23:51:04.832Z,6.92
2023-02-11T23:53:31.393Z,6.72
2023-02-11T23:55:57.930Z,6.87
2023-02-11T23:58:24.535Z,6.94
